Time;durP1;ratioP1;P1;durP2;ratioP2;P2;SDS_P1;SDS_P2;PMS_P1;PMS_P2;Temp;Humidity;BMP_temperature;BMP_pressure;BME280_temperature;BME280_humidity;BME280_pressure;Samples;Min_cycle;Max_cycle;Signal;HPM_P1;HPM_P2
2023/10/22 00:00:37;;;;;;;;;;;;;;;18.73;64.33;99627.09;6213779;23;19907;-80
2023/10/22 00:03:02;;;;;;;;;;;;;;;18.78;64.65;99637.56;6212622;23;19907;-80
2023/10/22 00:05:28;;;;;;;;;;;;;;;18.76;64.44;99652.81;6213775;23;20389;-80
2023/10/22 00:07:53;;;;;;;;;;;;;;;18.43;66.34;99667.72;6213502;23;19918;-80
2023/10/22 00:10:19;;;;;;;;;;;;;;;18.60;66.42;99655.38;6213902;23;19908;-80
2023/10/22 00:12:44;;;;;;;;;;;;;;;18.74;66.29;99663.56;6213772;23;19911;-80
2023/10/22 00:15:09;;;;;;;;;;;;;;;18.85;65.72;99651.53;6213277;23;19908;-80
2023/10/22 00:17:35;;;;;;;;;;;;;;;18.64;66.77;99661.41;6213496;23;19911;-80
2023/10/22 00:20:00;;;;;;;;;;;;;;;18.74;66.50;99671.59;6213415;23;19907;-80
2023/10/22 00:22:25;;;;;;;;;;;;;;;18.78;66.56;99670.50;6212932;23;19914;-80
2023/10/22 00:24:50;;;;;;;;;;;;;;;18.70;67.20;99663.78;6213365;23;19914;-80
2023/10/22 00:27:16;;;;;;;;;;;;;;;18.76;67.20;99669.69;6213911;23;19987;-80
2023/10/22 00:29:41;;;;;;;;;;;;;;;18.95;66.47;99658.13;6212862;23;20116;-79
2023/10/22 00:32:06;;;;;;;;;;;;;;;18.78;66.53;99657.16;6213206;23;20367;-80
2023/10/22 00:34:32;;;;;;;;;;;;;;;18.87;66.48;99650.50;6212831;23;19912;-80
2023/10/22 00:36:57;;;;;;;;;;;;;;;18.93;66.01;99638.63;6213533;23;19904;-79
2023/10/22 00:39:22;;;;;;;;;;;;;;;18.92;66.36;99659.16;6212681;23;20323;-81
2023/10/22 00:41:48;;;;;;;;;;;;;;;18.98;65.77;99659.78;6213202;23;20383;-81
2023/10/22 00:44:13;;;;;;;;;;;;;;;19.09;65.74;99649.41;6213037;23;19995;-80
2023/10/22 00:46:38;;;;;;;;;;;;;;;19.00;66.06;99645.41;6213123;23;19939;-81
2023/10/22 00:49:04;;;;;;;;;;;;;;;18.98;66.08;99652.63;6213611;23;19908;-80
2023/10/22 00:51:29;;;;;;;;;;;;;;;19.00;65.92;99648.09;6213536;23;20251;-81
2023/10/22 00:53:55;;;;;;;;;;;;;;;19.09;65.36;99652.06;6213682;23;19912;-80
2023/10/22 00:56:22;;;;;;;;;;;;;;;18.98;65.69;99651.75;6212772;23;20437;-80
2023/10/22 00:58:48;;;;;;;;;;;;;;;18.93;66.11;99636.81;6201244;23;19908;-80
2023/10/22 01:01:14;;;;;;;;;;;;;;;18.77;66.24;99641.19;6213476;23;20316;-80
2023/10/22 01:03:39;;;;;;;;;;;;;;;18.71;66.07;99631.66;6212454;23;19908;-80
2023/10/22 01:06:05;;;;;;;;;;;;;;;18.71;65.59;99620.97;6212874;23;20271;-79
2023/10/22 01:08:35;;;;;;;;;;;;;;;18.61;65.50;99636.59;6213024;23;19908;-79
2023/10/22 01:11:04;;;;;;;;;;;;;;;18.59;65.92;99648.28;6212491;23;20316;-80
2023/10/22 01:13:30;;;;;;;;;;;;;;;18.46;66.56;99648.03;6213097;23;20346;-80
2023/10/22 01:15:56;;;;;;;;;;;;;;;18.50;67.18;99654.06;6213452;23;19987;-79
2023/10/22 01:18:21;;;;;;;;;;;;;;;18.46;67.37;99656.03;6212323;23;19915;-80
2023/10/22 01:20:46;;;;;;;;;;;;;;;18.42;67.58;99654.44;6213873;23;20242;-80
2023/10/22 01:23:12;;;;;;;;;;;;;;;18.38;67.81;99640.38;6186239;23;20275;-79
2023/10/22 01:25:37;;;;;;;;;;;;;;;18.55;67.38;99631.56;6212752;23;20224;-80
2023/10/22 01:28:03;;;;;;;;;;;;;;;18.49;67.19;99621.19;6212425;23;19908;-79
2023/10/22 01:30:29;;;;;;;;;;;;;;;18.38;68.12;99627.03;6212808;23;19908;-79
2023/10/22 01:32:54;;;;;;;;;;;;;;;18.42;67.87;99625.06;6212565;23;19915;-80
2023/10/22 01:35:19;;;;;;;;;;;;;;;18.49;67.81;99638.97;6212908;23;19966;-80
2023/10/22 01:37:45;;;;;;;;;;;;;;;18.40;68.30;99645.66;6212851;23;19990;-80
2023/10/22 01:40:10;;;;;;;;;;;;;;;18.38;68.21;99647.50;6212854;23;19912;-80
2023/10/22 01:42:36;;;;;;;;;;;;;;;18.49;68.09;99671.03;6212501;23;19986;-80
2023/10/22 01:45:01;;;;;;;;;;;;;;;18.44;68.54;99660.56;6212861;23;19908;-80
2023/10/22 01:47:26;;;;;;;;;;;;;;;18.48;68.03;99648.81;6213012;23;19910;-80
2023/10/22 01:49:51;;;;;;;;;;;;;;;18.58;68.25;99654.56;6211613;23;19912;-80
2023/10/22 01:52:17;;;;;;;;;;;;;;;18.58;68.05;99649.22;6213203;23;19911;-80
2023/10/22 01:54:42;;;;;;;;;;;;;;;18.35;68.75;99640.53;6212362;23;19954;-80
2023/10/22 01:57:07;;;;;;;;;;;;;;;18.25;68.77;99647.25;6212738;23;19955;-80
2023/10/22 01:59:33;;;;;;;;;;;;;;;18.18;68.43;99637.78;6212580;23;19915;-80
2023/10/22 02:01:58;;;;;;;;;;;;;;;18.04;69.23;99636.66;6211842;23;19958;-80
2023/10/22 02:04:24;;;;;;;;;;;;;;;18.12;68.92;99648.75;6213178;23;19908;-80
2023/10/22 02:06:49;;;;;;;;;;;;;;;18.16;69.23;99637.84;6213000;23;20022;-81
2023/10/22 02:09:16;;;;;;;;;;;;;;;18.29;69.10;99626.59;6211682;23;20339;-80
2023/10/22 02:11:42;;;;;;;;;;;;;;;18.17;69.33;99622.72;6212275;23;19915;-80
2023/10/22 02:14:07;;;;;;;;;;;;;;;18.24;69.64;99624.16;6211683;23;20324;-80
2023/10/22 02:16:32;;;;;;;;;;;;;;;18.00;70.26;99621.72;6214037;23;19915;-79
2023/10/22 02:18:58;;;;;;;;;;;;;;;17.78;70.91;99626.25;6214492;23;20232;-80
2023/10/22 02:21:26;;;;;;;;;;;;;;;17.82;70.77;99634.06;6213881;23;20389;-80
2023/10/22 02:23:52;;;;;;;;;;;;;;;17.82;71.30;99642.06;6213925;23;19908;-80
2023/10/22 02:26:18;;;;;;;;;;;;;;;17.88;71.53;99638.25;6214340;23;19907;-80
2023/10/22 02:28:43;;;;;;;;;;;;;;;17.98;70.58;99639.59;6213572;23;19908;-79
2023/10/22 02:31:10;;;;;;;;;;;;;;;18.04;70.59;99650.00;6213705;23;19946;-79
2023/10/22 02:33:35;;;;;;;;;;;;;;;18.05;70.43;99645.50;6214212;23;20418;-80
2023/10/22 02:36:01;;;;;;;;;;;;;;;18.06;70.23;99650.78;6214538;23;19908;-80
2023/10/22 02:38:26;;;;;;;;;;;;;;;17.99;70.16;99645.78;6213537;23;19912;-80
2023/10/22 02:40:52;;;;;;;;;;;;;;;17.97;70.74;99659.22;6214805;23;19915;-79
2023/10/22 02:43:17;;;;;;;;;;;;;;;18.11;70.01;99660.38;6213903;23;19908;-80
2023/10/22 02:45:52;;;;;;;;;;;;;;;18.23;69.72;99670.50;6214327;23;19943;-79
2023/10/22 02:48:17;;;;;;;;;;;;;;;18.24;69.68;99669.53;6213778;23;19912;-79
2023/10/22 02:50:42;;;;;;;;;;;;;;;18.25;69.47;99671.28;6214436;23;20068;-79
2023/10/22 02:53:08;;;;;;;;;;;;;;;18.24;69.63;99670.41;6186549;23;19908;-79
2023/10/22 02:55:33;;;;;;;;;;;;;;;18.17;69.96;99668.97;6214329;23;19908;-79
2023/10/22 02:57:58;;;;;;;;;;;;;;;18.20;69.98;99663.47;6214139;23;19904;-79
2023/10/22 03:00:24;;;;;;;;;;;;;;;18.25;69.51;99668.59;6213891;23;19915;-79
2023/10/22 03:02:49;;;;;;;;;;;;;;;18.32;69.50;99658.47;6214763;23;20251;-79
2023/10/22 03:05:14;;;;;;;;;;;;;;;18.31;69.33;99660.31;6213812;23;19916;-79
2023/10/22 03:07:41;;;;;;;;;;;;;;;18.29;69.53;99653.28;6213919;23;19946;-79
2023/10/22 03:10:07;;;;;;;;;;;;;;;18.31;69.17;99648.75;6213711;23;19912;-80
2023/10/22 03:12:32;;;;;;;;;;;;;;;18.32;68.68;99651.38;6214714;23;19947;-79
2023/10/22 03:14:57;;;;;;;;;;;;;;;18.16;68.92;99648.53;6213883;23;19963;-80
2023/10/22 03:17:23;;;;;;;;;;;;;;;18.11;69.29;99653.22;6213961;23;20319;-80
2023/10/22 03:19:48;;;;;;;;;;;;;;;18.14;68.78;99654.91;6214440;23;19912;-80
2023/10/22 03:22:15;;;;;;;;;;;;;;;18.16;68.93;99653.00;6214594;23;19914;-81
2023/10/22 03:24:40;;;;;;;;;;;;;;;18.12;69.18;99662.09;6213831;23;20014;-81
2023/10/22 03:27:05;;;;;;;;;;;;;;;18.11;69.25;99660.38;6213039;23;20314;-80
2023/10/22 03:29:31;;;;;;;;;;;;;;;18.10;69.56;99663.97;6214701;23;19908;-80
2023/10/22 03:31:57;;;;;;;;;;;;;;;18.05;69.56;99653.53;6213441;23;19908;-81
2023/10/22 03:34:23;;;;;;;;;;;;;;;18.04;69.89;99650.00;6214540;23;19935;-81
2023/10/22 03:36:48;;;;;;;;;;;;;;;18.04;69.90;99666.00;6213494;23;19915;-81
2023/10/22 03:39:14;;;;;;;;;;;;;;;18.01;70.05;99665.25;6213641;23;19916;-79
2023/10/22 03:41:39;;;;;;;;;;;;;;;18.11;69.78;99660.38;6213425;23;19982;-79
2023/10/22 03:44:05;;;;;;;;;;;;;;;17.99;70.50;99649.31;6214559;23;19912;-78
2023/10/22 03:46:30;;;;;;;;;;;;;;;18.05;70.08;99643.69;6213917;23;19908;-80
2023/10/22 03:48:57;;;;;;;;;;;;;;;18.12;70.49;99654.09;6213324;23;19935;-79
2023/10/22 03:51:22;;;;;;;;;;;;;;;18.04;70.66;99654.44;6213678;23;19982;-79
2023/10/22 03:53:48;;;;;;;;;;;;;;;18.04;71.05;99660.66;6213438;23;19997;-80
2023/10/22 03:56:14;;;;;;;;;;;;;;;18.12;70.65;99657.66;6213774;23;20005;-79
2023/10/22 03:58:39;;;;;;;;;;;;;;;18.17;70.39;99649.41;6212560;23;19908;-79
2023/10/22 04:01:04;;;;;;;;;;;;;;;18.17;70.27;99657.44;6213845;23;19935;-79
2023/10/22 04:03:30;;;;;;;;;;;;;;;18.19;70.58;99647.53;6213121;23;19915;-80
2023/10/22 04:05:58;;;;;;;;;;;;;;;18.10;69.55;99648.81;6213417;23;20247;-79
2023/10/22 04:08:24;;;;;;;;;;;;;;;17.85;70.05;99643.72;6212751;23;19990;-79
2023/10/22 04:10:50;;;;;;;;;;;;;;;17.85;70.24;99631.25;6211476;23;19912;-81
2023/10/22 04:13:15;;;;;;;;;;;;;;;17.79;70.01;99636.00;6213239;23;20286;-81
2023/10/22 04:15:41;;;;;;;;;;;;;;;17.80;70.31;99630.59;6212184;23;19912;-79
2023/10/22 04:18:06;;;;;;;;;;;;;;;17.77;70.69;99644.09;6213540;23;19908;-78
2023/10/22 04:20:33;;;;;;;;;;;;;;;17.78;70.56;99656.50;6212730;23;19978;-79
2023/10/22 04:22:58;;;;;;;;;;;;;;;17.69;70.75;99664.91;6212948;23;20334;-78
2023/10/22 04:25:24;;;;;;;;;;;;;;;17.40;72.62;99652.88;6213080;23;19908;-79
2023/10/22 04:27:49;;;;;;;;;;;;;;;17.44;72.86;99646.44;6212865;23;19965;-78
2023/10/22 04:30:14;;;;;;;;;;;;;;;17.59;72.22;99643.09;6213232;23;19912;-78
2023/10/22 04:32:40;;;;;;;;;;;;;;;17.76;71.50;99639.66;6213938;23;20369;-78
2023/10/22 04:35:05;;;;;;;;;;;;;;;17.83;71.02;99645.63;6213725;23;19974;-78
2023/10/22 04:37:31;;;;;;;;;;;;;;;17.73;71.32;99647.81;6212727;23;19919;-78
2023/10/22 04:39:56;;;;;;;;;;;;;;;17.81;71.19;99643.00;6213272;23;19915;-79
2023/10/22 04:42:21;;;;;;;;;;;;;;;17.87;70.68;99641.84;6212634;23;19908;-78
2023/10/22 04:44:47;;;;;;;;;;;;;;;17.79;70.76;99634.19;6213625;23;19907;-79
2023/10/22 04:47:12;;;;;;;;;;;;;;;17.81;70.66;99643.00;6212416;23;19908;-79
2023/10/22 04:49:37;;;;;;;;;;;;;;;17.84;70.29;99642.00;6212526;23;19915;-79
2023/10/22 04:52:03;;;;;;;;;;;;;;;17.82;70.37;99644.72;6212078;23;19908;-79
2023/10/22 04:54:28;;;;;;;;;;;;;;;17.88;69.73;99646.25;6212343;23;19912;-79
2023/10/22 04:56:54;;;;;;;;;;;;;;;17.78;69.97;99647.59;6211719;23;19939;-79
2023/10/22 04:59:19;;;;;;;;;;;;;;;17.79;70.10;99649.34;6211854;23;19935;-79
2023/10/22 05:01:44;;;;;;;;;;;;;;;17.81;69.64;99659.03;6212503;23;20006;-80
2023/10/22 05:04:10;;;;;;;;;;;;;;;17.86;69.69;99672.16;6212964;23;20342;-80
2023/10/22 05:06:35;;;;;;;;;;;;;;;17.80;69.35;99680.44;6212470;23;19918;-79
2023/10/22 05:09:01;;;;;;;;;;;;;;;17.82;69.51;99676.75;6211714;23;19908;-79
2023/10/22 05:11:26;;;;;;;;;;;;;;;17.85;69.57;99686.41;6212245;23;19930;-79
2023/10/22 05:13:52;;;;;;;;;;;;;;;17.85;69.41;99673.94;6186086;23;19908;-79
2023/10/22 05:16:17;;;;;;;;;;;;;;;17.79;69.68;99678.69;6212117;23;19987;-79
2023/10/22 05:18:42;;;;;;;;;;;;;;;17.82;69.21;99678.56;6212710;23;19946;-79
2023/10/22 05:21:09;;;;;;;;;;;;;;;17.79;69.22;99663.53;6211519;23;19911;-81
2023/10/22 05:23:34;;;;;;;;;;;;;;;17.78;69.39;99676.94;6211360;23;19908;-80
2023/10/22 05:26:02;;;;;;;;;;;;;;;17.70;69.73;99680.84;6209267;23;19915;-80
2023/10/22 05:28:28;;;;;;;;;;;;;;;17.76;69.27;99686.84;6209757;23;20327;-80
2023/10/22 05:30:53;;;;;;;;;;;;;;;17.69;69.82;99689.78;6209886;23;19911;-82
2023/10/22 05:33:18;;;;;;;;;;;;;;;17.65;69.91;99689.97;6211009;23;19908;-82
2023/10/22 05:35:43;;;;;;;;;;;;;;;17.76;69.65;99697.50;6184906;23;19908;-82
2023/10/22 05:38:10;;;;;;;;;;;;;;;17.70;69.84;99706.63;6211619;23;19938;-81
2023/10/22 05:40:36;;;;;;;;;;;;;;;17.69;70.26;99712.94;6211843;23;20339;-81
2023/10/22 05:43:03;;;;;;;;;;;;;;;17.75;70.25;99726.00;6211933;23;19907;-82
2023/10/22 05:45:28;;;;;;;;;;;;;;;17.87;69.84;99735.22;6211760;23;20405;-81
2023/10/22 05:47:53;;;;;;;;;;;;;;;17.81;70.19;99741.72;6211982;23;19908;-81
2023/10/22 05:50:18;;;;;;;;;;;;;;;17.91;70.11;99744.88;6212750;23;19918;-82
2023/10/22 05:52:44;;;;;;;;;;;;;;;18.02;69.74;99739.06;6213477;23;19907;-83
2023/10/22 05:55:09;;;;;;;;;;;;;;;18.06;69.38;99760.22;6213926;23;19907;-80
2023/10/22 05:57:35;;;;;;;;;;;;;;;17.71;70.90;99753.72;6212931;23;19916;-80
2023/10/22 06:00:01;;;;;;;;;;;;;;;17.83;70.66;99771.88;6214597;23;19908;-79
2023/10/22 06:02:26;;;;;;;;;;;;;;;17.87;70.94;99754.81;6213637;23;19943;-80
2023/10/22 06:04:51;;;;;;;;;;;;;;;18.17;69.97;99743.72;6213421;23;19908;-81
2023/10/22 06:07:17;;;;;;;;;;;;;;;18.14;69.96;99737.66;6184163;23;19912;-82
2023/10/22 06:09:42;;;;;;;;;;;;;;;18.37;69.04;99748.13;6210172;23;19967;-82
2023/10/22 06:12:08;;;;;;;;;;;;;;;18.18;70.21;99741.91;6211892;23;19908;-82
2023/10/22 06:14:35;;;;;;;;;;;;;;;18.02;70.48;99728.38;6211606;23;20316;-81
2023/10/22 06:17:00;;;;;;;;;;;;;;;18.28;69.60;99734.34;6210838;23;20287;-81
2023/10/22 06:19:25;;;;;;;;;;;;;;;17.71;71.87;99711.06;6211037;23;19943;-81
2023/10/22 06:21:51;;;;;;;;;;;;;;;18.19;71.08;99730.28;6210959;23;19907;-81
2023/10/22 06:24:16;;;;;;;;;;;;;;;18.38;69.96;99719.63;6211004;23;19991;-81
2023/10/22 06:26:41;;;;;;;;;;;;;;;18.47;69.77;99727.19;6210921;23;20422;-82
2023/10/22 06:29:06;;;;;;;;;;;;;;;18.29;70.52;99722.72;6210303;23;19911;-81
2023/10/22 06:31:32;;;;;;;;;;;;;;;18.41;70.58;99722.13;6211779;23;19908;-81
2023/10/22 06:33:57;;;;;;;;;;;;;;;18.56;69.70;99723.22;6183920;23;19903;-81
2023/10/22 06:36:23;;;;;;;;;;;;;;;18.47;70.10;99718.31;6211973;23;19908;-80
2023/10/22 06:38:49;;;;;;;;;;;;;;;18.58;69.76;99732.03;6213678;23;19912;-80
2023/10/22 06:41:14;;;;;;;;;;;;;;;18.79;69.21;99732.81;6212866;23;20001;-81
2023/10/22 06:43:40;;;;;;;;;;;;;;;19.01;68.46;99740.66;6210515;23;19903;-82
2023/10/22 06:46:05;;;;;;;;;;;;;;;19.13;68.02;99741.88;6211210;23;20004;-81
2023/10/22 06:48:39;;;;;;;;;;;;;;;19.10;68.76;99726.00;6183422;23;19935;-83
2023/10/22 06:51:09;;;;;;;;;;;;;;;19.28;69.24;99722.41;6210763;23;19907;-81
2023/10/22 06:53:34;;;;;;;;;;;;;;;19.57;66.86;99698.66;6210333;23;19908;-81
2023/10/22 06:56:01;;;;;;;;;;;;;;;19.39;68.00;99715.66;6210839;23;19937;-80
2023/10/22 06:58:27;;;;;;;;;;;;;;;19.47;68.23;99713.44;6209632;23;19912;-81
2023/10/22 07:00:54;;;;;;;;;;;;;;;19.65;66.96;99715.16;6210125;23;19970;-81
2023/10/22 07:03:19;;;;;;;;;;;;;;;19.83;66.11;99736.56;6210748;23;19908;-80
2023/10/22 07:05:44;;;;;;;;;;;;;;;19.94;65.89;99752.06;6208327;23;19939;-80
2023/10/22 07:08:10;;;;;;;;;;;;;;;19.85;66.60;99759.66;6204028;23;19907;-81
2023/10/22 07:10:35;;;;;;;;;;;;;;;19.91;66.20;99753.13;6207362;23;19960;-80
2023/10/22 07:13:06;;;;;;;;;;;;;;;19.98;65.51;99751.81;6207740;23;20014;-83
2023/10/22 07:15:32;;;;;;;;;;;;;;;20.08;65.64;99740.63;6208559;23;19904;-83
2023/10/22 07:17:57;;;;;;;;;;;;;;;20.10;65.62;99744.09;6208661;23;20363;-82
2023/10/22 07:20:22;;;;;;;;;;;;;;;20.03;66.14;99755.16;6208982;23;19915;-81
2023/10/22 07:22:48;;;;;;;;;;;;;;;20.08;66.18;99760.25;6208420;23;19908;-81
2023/10/22 07:25:13;;;;;;;;;;;;;;;20.23;66.30;99761.22;6210784;23;19908;-81
2023/10/22 07:27:38;;;;;;;;;;;;;;;20.37;65.56;99768.50;6210586;23;19914;-81
2023/10/22 07:30:04;;;;;;;;;;;;;;;20.39;65.56;99758.59;6210602;23;20371;-81
2023/10/22 07:32:29;;;;;;;;;;;;;;;20.47;64.91;99747.47;6210441;23;20414;-82
2023/10/22 07:34:55;;;;;;;;;;;;;;;20.65;64.25;99748.25;6210949;23;19912;-81
2023/10/22 07:37:20;;;;;;;;;;;;;;;20.57;65.31;99738.81;6210365;23;19967;-81
2023/10/22 07:39:45;;;;;;;;;;;;;;;20.76;64.29;99735.16;6178610;23;19912;-81
2023/10/22 07:42:10;;;;;;;;;;;;;;;21.09;63.28;99753.78;6180697;23;20279;-81
2023/10/22 07:44:36;;;;;;;;;;;;;;;21.39;61.92;99742.19;6182639;23;19904;-80
2023/10/22 07:47:01;;;;;;;;;;;;;;;21.35;61.92;99737.09;6181521;23;19924;-82
2023/10/22 07:49:26;;;;;;;;;;;;;;;21.50;61.97;99749.66;6179354;23;20067;-82
2023/10/22 07:51:52;;;;;;;;;;;;;;;21.58;64.09;99749.19;6180372;23;19936;-82
2023/10/22 07:54:17;;;;;;;;;;;;;;;21.95;60.79;99742.47;6180076;23;19947;-82
2023/10/22 07:56:42;;;;;;;;;;;;;;;22.35;59.28;99736.44;6176909;23;19908;-83
2023/10/22 07:59:08;;;;;;;;;;;;;;;22.47;60.64;99746.41;6178580;23;19908;-85
2023/10/22 08:01:33;;;;;;;;;;;;;;;22.56;60.25;99744.97;6178293;23;19912;-85
2023/10/22 08:03:58;;;;;;;;;;;;;;;23.03;57.78;99749.09;6180161;23;19908;-84
2023/10/22 08:06:24;;;;;;;;;;;;;;;23.24;57.42;99740.59;6151591;23;19904;-84
2023/10/22 08:08:49;;;;;;;;;;;;;;;23.40;56.83;99735.03;6178582;23;19912;-84
2023/10/22 08:11:14;;;;;;;;;;;;;;;23.49;56.98;99738.94;6179669;23;20342;-83
2023/10/22 08:13:40;;;;;;;;;;;;;;;23.86;55.51;99750.75;6181361;23;20025;-82
2023/10/22 08:16:05;;;;;;;;;;;;;;;23.90;55.85;99744.19;6182700;23;20390;-84
2023/10/22 08:18:31;;;;;;;;;;;;;;;23.90;55.02;99751.41;6183096;23;19912;-84
2023/10/22 08:21:00;;;;;;;;;;;;;;;23.69;55.25;99749.19;6183245;23;19908;-82
2023/10/22 08:23:26;;;;;;;;;;;;;;;23.38;56.28;99728.91;6181764;23;20034;-83
2023/10/22 08:25:52;;;;;;;;;;;;;;;23.68;56.06;99749.28;6182735;23;19951;-83
2023/10/22 08:28:17;;;;;;;;;;;;;;;23.72;56.04;99757.06;6182469;23;19908;-84
2023/10/22 08:30:46;;;;;;;;;;;;;;;23.91;55.51;99737.84;6182244;23;19908;-83
2023/10/22 08:33:11;;;;;;;;;;;;;;;23.80;55.16;99743.06;6182529;23;19916;-84
2023/10/22 08:35:37;;;;;;;;;;;;;;;23.74;55.65;99733.59;6182520;23;19904;-82
2023/10/22 08:38:03;;;;;;;;;;;;;;;23.86;55.46;99722.97;6184133;23;19908;-82
2023/10/22 08:40:29;;;;;;;;;;;;;;;23.68;55.43;99738.53;6213091;23;19908;-78
2023/10/22 08:42:56;;;;;;;;;;;;;;;23.81;55.17;99752.03;6212351;23;20256;-77
2023/10/22 08:45:22;;;;;;;;;;;;;;;23.88;55.11;99737.19;6212193;23;19914;-78
2023/10/22 08:47:47;;;;;;;;;;;;;;;23.62;55.56;99739.84;6210692;23;19930;-78
2023/10/22 08:50:15;;;;;;;;;;;;;;;23.63;55.89;99740.69;6212580;23;20312;-81
2023/10/22 08:52:41;;;;;;;;;;;;;;;23.61;56.07;99738.09;6213065;23;20501;-79
2023/10/22 08:55:07;;;;;;;;;;;;;;;23.56;56.12;99745.63;6213634;23;19907;-76
2023/10/22 08:57:32;;;;;;;;;;;;;;;23.60;56.49;99744.44;6211549;23;19965;-78
2023/10/22 08:59:57;;;;;;;;;;;;;;;23.67;57.23;99737.69;6212261;23;19998;-81
2023/10/22 09:02:26;;;;;;;;;;;;;;;23.62;57.45;99745.22;6212265;23;19908;-80
2023/10/22 09:04:52;;;;;;;;;;;;;;;23.69;56.51;99730.34;6212409;23;19911;-79
2023/10/22 09:07:17;;;;;;;;;;;;;;;23.73;56.25;99726.47;6211866;23;19966;-80
2023/10/22 09:09:43;;;;;;;;;;;;;;;23.81;56.32;99743.94;6212185;23;20232;-81
2023/10/22 09:12:08;;;;;;;;;;;;;;;23.79;55.90;99719.81;6185670;23;19915;-79
2023/10/22 09:14:34;;;;;;;;;;;;;;;23.82;57.56;99710.63;6213288;23;19907;-81
2023/10/22 09:17:13;;;;;;;;;;;;;;;23.82;55.84;99706.13;6187145;23;19908;-81
2023/10/22 09:19:47;;;;;;;;;;;;;;;23.62;55.83;99694.06;6211449;23;20275;-81
2023/10/22 09:22:22;;;;;;;;;;;;;;;23.65;56.11;99691.16;6212158;23;19982;-80
2023/10/22 09:24:51;;;;;;;;;;;;;;;23.47;55.95;99662.81;6212453;23;19931;-83
2023/10/22 09:27:27;;;;;;;;;;;;;;;23.56;56.03;99675.63;6185856;23;19926;-82
2023/10/22 09:29:53;;;;;;;;;;;;;;;23.48;56.26;99681.56;6214061;23;19915;-82
2023/10/22 09:32:19;;;;;;;;;;;;;;;23.40;56.31;99670.44;6188081;23;20255;-83
2023/10/22 09:34:44;;;;;;;;;;;;;;;23.46;56.20;99670.00;6214512;23;19908;-81
2023/10/22 09:37:09;;;;;;;;;;;;;;;23.24;56.59;99662.56;6212861;23;19927;-79
2023/10/22 09:39:35;;;;;;;;;;;;;;;23.40;56.31;99655.16;6213025;23;19943;-82
2023/10/22 09:42:00;;;;;;;;;;;;;;;23.40;56.21;99654.28;6213231;23;19908;-80
2023/10/22 09:44:29;;;;;;;;;;;;;;;23.36;56.25;99644.72;6213593;23;20351;-79
2023/10/22 09:46:55;;;;;;;;;;;;;;;23.49;55.93;99653.66;6213894;23;19919;-78
2023/10/22 09:49:21;;;;;;;;;;;;;;;23.51;55.94;99642.78;6213683;23;19907;-81
2023/10/22 09:51:46;;;;;;;;;;;;;;;23.33;56.28;99628.78;6213369;23;20343;-79
2023/10/22 09:54:12;;;;;;;;;;;;;;;23.26;56.69;99638.25;6213239;23;19908;-78
2023/10/22 09:56:50;;;;;;;;;;;;;;;23.33;56.64;99644.94;6212806;23;20308;-80
2023/10/22 09:59:17;;;;;;;;;;;;;;;23.39;56.38;99641.81;6213907;23;20294;-79
2023/10/22 10:01:43;;;;;;;;;;;;;;;23.58;56.22;99642.25;6213240;23;20446;-81
2023/10/22 10:04:09;;;;;;;;;;;;;;;23.47;56.30;99644.84;6213380;23;20343;-81
2023/10/22 10:06:35;;;;;;;;;;;;;;;23.58;56.07;99646.78;6212530;23;19908;-81
2023/10/22 10:09:03;;;;;;;;;;;;;;;23.67;55.48;99650.66;6213099;23;20273;-79
2023/10/22 10:11:28;;;;;;;;;;;;;;;23.97;55.35;99647.63;6211334;23;20006;-80
2023/10/22 10:13:53;;;;;;;;;;;;;;;23.94;55.00;99648.75;6212866;23;19935;-79
2023/10/22 10:16:22;;;;;;;;;;;;;;;24.06;54.50;99636.19;6213444;23;20403;-80
2023/10/22 10:19:04;;;;;;;;;;;;;;;24.19;54.18;99627.22;6212854;23;19923;-80
2023/10/22 10:21:45;;;;;;;;;;;;;;;23.83;55.45;99627.03;6211046;23;20268;-80
2023/10/22 10:24:29;;;;;;;;;;;;;;;24.08;54.84;99619.94;6213032;23;19908;-79
2023/10/22 10:26:57;;;;;;;;;;;;;;;24.25;54.29;99624.09;6210565;23;20003;-80
2023/10/22 10:29:24;;;;;;;;;;;;;;;24.31;54.23;99611.03;6209748;23;19912;-81
2023/10/22 10:31:53;;;;;;;;;;;;;;;24.34;54.42;99611.78;6210807;23;20255;-81
2023/10/22 10:34:31;;;;;;;;;;;;;;;24.38;55.49;99629.47;6211844;23;19914;-80
2023/10/22 10:36:57;;;;;;;;;;;;;;;24.43;54.76;99628.13;6212962;23;19908;-80
2023/10/22 10:39:37;;;;;;;;;;;;;;;24.41;55.02;99611.22;6213759;23;20225;-83
2023/10/22 10:42:03;;;;;;;;;;;;;;;24.81;53.92;99602.88;6212588;23;19915;-77
2023/10/22 10:44:28;;;;;;;;;;;;;;;24.83;53.36;99594.66;6212339;23;19904;-81
2023/10/22 10:46:54;;;;;;;;;;;;;;;25.00;52.26;99572.63;6211259;23;20839;-80
2023/10/22 10:49:51;;;;;;;;;;;;;;;24.78;52.20;99570.72;6212948;23;19960;-79
2023/10/22 10:52:17;;;;;;;;;;;;;;;24.63;52.85;99570.06;6209885;23;19908;-80
2023/10/22 10:54:57;;;;;;;;;;;;;;;24.88;52.88;99570.03;6212818;23;19912;-81
2023/10/22 10:57:44;;;;;;;;;;;;;;;25.08;52.24;99565.78;6212686;23;19908;-81
2023/10/22 11:00:10;;;;;;;;;;;;;;;25.25;51.69;99559.94;6213249;23;20255;-82
2023/10/22 11:02:42;;;;;;;;;;;;;;;25.47;51.36;99569.06;6213994;23;19915;-82
2023/10/22 11:05:08;;;;;;;;;;;;;;;25.40;51.45;99563.31;6213655;23;19912;-82
2023/10/22 11:07:34;;;;;;;;;;;;;;;25.63;51.18;99550.69;6212818;23;20288;-81
2023/10/22 11:10:06;;;;;;;;;;;;;;;25.84;50.06;99552.63;6212997;23;19927;-81
2023/10/22 11:12:31;;;;;;;;;;;;;;;25.90;49.78;99555.72;6213388;23;20393;-81
2023/10/22 11:14:56;;;;;;;;;;;;;;;25.74;50.18;99549.81;6213466;23;19908;-80
2023/10/22 11:17:22;;;;;;;;;;;;;;;25.57;49.72;99547.63;6213469;23;19908;-81
2023/10/22 11:19:49;;;;;;;;;;;;;;;25.60;50.82;99536.56;6213990;23;19916;-81
2023/10/22 11:22:15;;;;;;;;;;;;;;;25.68;50.05;99536.81;6213333;23;19911;-81
2023/10/22 11:24:40;;;;;;;;;;;;;;;25.61;49.57;99528.34;6213501;23;19907;-82
2023/10/22 11:27:06;;;;;;;;;;;;;;;25.48;50.57;99527.59;6213659;23;19908;-83
2023/10/22 11:29:47;;;;;;;;;;;;;;;25.37;51.31;99521.22;6213547;23;19997;-81
2023/10/22 11:32:22;;;;;;;;;;;;;;;25.60;50.78;99521.22;6213050;23;19907;-81
2023/10/22 11:34:47;;;;;;;;;;;;;;;25.86;49.93;99529.06;6213982;23;19997;-82
2023/10/22 11:37:13;;;;;;;;;;;;;;;26.06;48.96;99522.06;6213314;23;20002;-81
2023/10/22 11:39:41;;;;;;;;;;;;;;;25.96;49.61;99521.91;6213898;23;19912;-81
2023/10/22 11:42:07;;;;;;;;;;;;;;;26.21;48.65;99515.38;6213331;23;19930;-82
2023/10/22 11:44:33;;;;;;;;;;;;;;;26.22;48.69;99508.97;6213033;23;19908;-82
2023/10/22 11:47:02;;;;;;;;;;;;;;;26.40;48.44;99501.19;6212800;23;20369;-82
2023/10/22 11:49:28;;;;;;;;;;;;;;;26.41;47.94;99494.75;6213429;23;19960;-80
2023/10/22 11:51:53;;;;;;;;;;;;;;;26.34;48.15;99488.16;6213007;23;19907;-80
2023/10/22 11:54:19;;;;;;;;;;;;;;;26.30;47.63;99496.66;6213840;23;19903;-80
2023/10/22 11:56:45;;;;;;;;;;;;;;;26.29;48.17;99490.41;6211535;23;19919;-80
2023/10/22 11:59:10;;;;;;;;;;;;;;;26.45;47.67;99490.81;6212119;23;19915;-80
2023/10/22 12:01:36;;;;;;;;;;;;;;;26.41;47.09;99485.78;6212831;23;19911;-80
2023/10/22 12:04:03;;;;;;;;;;;;;;;26.20;47.43;99473.09;6212589;23;19915;-81
2023/10/22 12:06:28;;;;;;;;;;;;;;;26.19;47.60;99465.13;6212484;23;19990;-82
2023/10/22 12:08:54;;;;;;;;;;;;;;;26.26;47.54;99461.78;6185016;23;19943;-81
2023/10/22 12:11:19;;;;;;;;;;;;;;;26.33;47.68;99470.22;6213013;23;19908;-83
2023/10/22 12:13:45;;;;;;;;;;;;;;;26.46;47.78;99486.25;6212013;23;19912;-81
2023/10/22 12:16:10;;;;;;;;;;;;;;;26.52;47.14;99472.22;6212550;23;20320;-83
2023/10/22 12:18:35;;;;;;;;;;;;;;;26.65;46.44;99471.16;6212260;23;19942;-82
2023/10/22 12:21:01;;;;;;;;;;;;;;;26.71;46.46;99460.72;6212414;23;19908;-82
2023/10/22 12:23:26;;;;;;;;;;;;;;;26.77;46.04;99467.44;6211397;23;20331;-81
2023/10/22 12:25:52;;;;;;;;;;;;;;;26.77;45.98;99462.91;6212247;23;19908;-82
2023/10/22 12:28:17;;;;;;;;;;;;;;;26.75;46.07;99447.78;6210731;23;19907;-81
2023/10/22 12:30:42;;;;;;;;;;;;;;;26.72;45.68;99448.06;6211092;23;20707;-80
2023/10/22 12:33:11;;;;;;;;;;;;;;;26.87;45.69;99456.69;6211985;23;19950;-79
2023/10/22 12:35:37;;;;;;;;;;;;;;;26.79;45.74;99454.66;6211365;23;19907;-81
2023/10/22 12:38:03;;;;;;;;;;;;;;;26.72;45.86;99461.56;6211915;23;19978;-79
2023/10/22 12:40:29;;;;;;;;;;;;;;;26.89;45.49;99462.81;6210988;23;19947;-79
2023/10/22 12:42:54;;;;;;;;;;;;;;;26.87;44.98;99464.81;6210837;23;19908;-79